Time;durP1;ratioP1;P1;durP2;ratioP2;P2;SDS_P1;SDS_P2;PMS_P1;PMS_P2;Temp;Humidity;BMP_temperature;BMP_pressure;BME280_temperature;BME280_humidity;BME280_pressure;Samples;Min_cycle;Max_cycle;Signal;HPM_P1;HPM_P2
2022/11/29 00:00:29;;;;;;;163.48;27.10;;;;;;;14.42;67.83;101501.25;5071923;28;20041;-72
2022/11/29 00:02:55;;;;;;;168.23;23.27;;;;;;;14.44;68.34;101506.41;5072890;28;20024;-71
2022/11/29 00:05:20;;;;;;;145.75;25.13;;;;;;;14.95;66.35;101501.94;5073153;28;20051;-72
2022/11/29 00:07:45;;;;;;;234.77;28.25;;;;;;;14.95;65.78;101499.22;5073417;28;20496;-70
2022/11/29 00:10:11;;;;;;;163.05;23.10;;;;;;;14.78;66.29;101501.00;5073492;28;20128;-72
2022/11/29 00:12:36;;;;;;;165.55;26.63;;;;;;;14.83;66.48;101498.41;5072283;28;20702;-71
2022/11/29 00:15:02;;;;;;;198.70;27.13;;;;;;;14.56;67.99;101505.38;5072181;28;20058;-70
2022/11/29 00:17:27;;;;;;;174.55;25.25;;;;;;;14.72;67.41;101503.84;5073259;28;20119;-71
2022/11/29 00:19:52;;;;;;;161.80;25.52;;;;;;;13.94;69.56;101504.06;5073021;28;20033;-71
2022/11/29 00:22:18;;;;;;;193.60;25.48;;;;;;;15.02;66.97;101503.69;5071698;28;20154;-73
2022/11/29 00:24:43;;;;;;;191.50;27.58;;;;;;;15.21;65.84;101507.88;5073195;28;20364;-71
2022/11/29 00:27:09;;;;;;;164.35;26.73;;;;;;;15.01;66.46;101505.56;5073409;28;20077;-72
2022/11/29 00:29:34;;;;;;;245.15;30.38;;;;;;;15.30;65.01;101501.84;5072892;28;20028;-72
2022/11/29 00:32:00;;;;;;;225.18;27.20;;;;;;;15.59;63.88;101503.53;5072842;28;20079;-71
2022/11/29 00:34:25;;;;;;;191.52;28.02;;;;;;;14.98;66.98;101503.31;5072830;28;20532;-72
2022/11/29 00:36:51;;;;;;;220.90;28.17;;;;;;;15.12;65.85;101512.00;5067541;28;20078;-71
2022/11/29 00:39:16;;;;;;;184.00;27.75;;;;;;;15.10;66.35;101514.97;5072740;28;20054;-71
2022/11/29 00:41:42;;;;;;;179.18;27.67;;;;;;;15.71;64.26;101512.44;5073249;28;20040;-72
2022/11/29 00:44:08;;;;;;;199.75;30.23;;;;;;;15.26;65.43;101516.09;5072883;28;20072;-71
2022/11/29 00:46:33;;;;;;;209.43;28.50;;;;;;;15.38;65.25;101527.72;5072588;28;20052;-72
2022/11/29 00:48:58;;;;;;;340.08;32.08;;;;;;;15.60;64.07;101531.47;5072380;28;20098;-72
2022/11/29 00:51:24;;;;;;;244.48;31.50;;;;;;;15.79;63.50;101524.78;5071296;28;20032;-72
2022/11/29 00:53:49;;;;;;;168.75;29.23;;;;;;;15.77;63.40;101525.03;5073074;28;20059;-72
2022/11/29 00:56:15;;;;;;;201.13;29.25;;;;;;;15.41;64.69;101519.94;5072529;28;20044;-72
2022/11/29 00:58:42;;;;;;;275.52;35.35;;;;;;;15.88;63.41;101517.88;5071979;28;20032;-71
2022/11/29 01:01:08;;;;;;;196.88;28.38;;;;;;;15.63;64.45;101523.66;5072121;28;20033;-72
2022/11/29 01:03:33;;;;;;;213.65;33.88;;;;;;;15.98;62.82;101528.13;5072115;28;20468;-71
2022/11/29 01:06:10;;;;;;;208.00;30.55;;;;;;;15.73;63.45;101526.56;5071391;28;20123;-71
2022/11/29 01:08:36;;;;;;;199.63;32.10;;;;;;;15.33;64.97;101527.63;5072121;28;20032;-71
2022/11/29 01:11:18;;;;;;;228.63;30.10;;;;;;;15.32;65.66;101529.50;5063463;28;20101;-72
2022/11/29 01:13:44;;;;;;;195.98;32.90;;;;;;;15.43;64.99;101531.38;5072207;28;20031;-72
2022/11/29 01:16:10;;;;;;;249.45;31.55;;;;;;;15.59;64.51;101529.81;5070590;28;20044;-72
2022/11/29 01:18:36;;;;;;;294.75;31.80;;;;;;;16.01;62.89;101528.44;5071656;28;20086;-71
2022/11/29 01:21:11;;;;;;;184.57;28.55;;;;;;;15.45;65.12;101533.88;5072023;28;20484;-72
2022/11/29 01:23:37;;;;;;;265.55;31.80;;;;;;;15.75;64.18;101535.28;5071863;28;20519;-71
2022/11/29 01:26:08;;;;;;;418.23;34.92;;;;;;;15.98;63.22;101544.38;5071976;28;20033;-71
2022/11/29 01:28:34;;;;;;;266.83;32.03;;;;;;;15.60;64.75;101547.72;5072118;28;20115;-71
2022/11/29 01:31:11;;;;;;;176.50;30.17;;;;;;;15.34;65.61;101549.06;5071485;28;20123;-72
2022/11/29 01:33:37;;;;;;;312.38;33.13;;;;;;;15.49;65.27;101551.25;5071738;28;20028;-72
2022/11/29 01:36:04;;;;;;;189.48;32.05;;;;;;;15.67;64.25;101548.38;5072310;28;20396;-73
2022/11/29 01:38:30;;;;;;;307.90;33.33;;;;;;;16.09;62.81;101549.75;5071643;28;20048;-71
2022/11/29 01:41:01;;;;;;;208.15;32.50;;;;;;;15.21;65.87;101553.91;5071495;28;20040;-72
2022/11/29 01:43:28;;;;;;;172.25;32.28;;;;;;;15.45;65.45;101564.47;5071619;28;20121;-72
2022/11/29 01:45:54;;;;;;;155.57;30.65;;;;;;;15.13;66.05;101560.53;5071718;28;20028;-72
2022/11/29 01:48:23;;;;;;;172.35;30.10;;;;;;;15.21;65.71;101552.03;5071371;28;20028;-73
2022/11/29 01:50:49;;;;;;;153.43;29.27;;;;;;;15.17;66.00;101558.16;5072005;28;20032;-72
2022/11/29 01:53:15;;;;;;;194.38;32.70;;;;;;;15.10;66.59;101562.84;5071571;28;20075;-72
2022/11/29 01:55:49;;;;;;;132.82;27.35;;;;;;;15.53;64.50;101563.28;5071317;28;20400;-72
2022/11/29 01:58:15;;;;;;;179.45;31.83;;;;;;;15.90;63.54;101567.25;5071272;28;20455;-71
2022/11/29 02:00:40;;;;;;;162.23;29.10;;;;;;;15.93;62.71;101566.78;5071264;28;20041;-71
2022/11/29 02:03:11;;;;;;;215.77;30.73;;;;;;;15.43;64.71;101566.59;5071910;28;20033;-71
2022/11/29 02:05:45;;;;;;;199.25;29.25;;;;;;;15.15;65.70;101563.00;5070119;28;20400;-71
2022/11/29 02:08:14;;;;;;;166.38;31.05;;;;;;;15.43;65.02;101568.50;5058641;28;20110;-71
2022/11/29 02:10:53;;;;;;;251.23;30.95;;;;;;;15.51;64.66;101562.69;5050502;28;20498;-72
2022/11/29 02:13:29;;;;;;;169.40;29.08;;;;;;;15.93;63.54;101569.50;5033372;28;20037;-72
2022/11/29 02:16:07;;;;;;;122.55;29.50;;;;;;;16.10;62.48;101573.06;5051428;28;20040;-71
2022/11/29 02:18:57;;;;;;;177.40;30.25;;;;;;;15.45;64.84;101575.31;5051048;28;20548;-71
2022/11/29 02:21:29;;;;;;;250.80;32.05;;;;;;;15.48;64.74;101566.72;5051087;28;20032;-71
2022/11/29 02:24:07;;;;;;;250.43;32.20;;;;;;;15.62;64.82;101570.81;5068772;28;20064;-70
2022/11/29 02:27:02;;;;;;;244.70;33.70;;;;;;;15.15;66.08;101576.53;5071256;28;20440;-70
2022/11/29 02:29:33;;;;;;;269.70;34.47;;;;;;;15.52;64.93;101577.91;5070973;28;20036;-72
2022/11/29 02:32:17;;;;;;;;;;;;;;;15.88;63.57;101576.72;5071734;28;20070;-72
2022/11/29 02:34:48;;;;;;;245.80;28.83;;;;;;;15.43;64.83;101573.94;5070914;28;19947;-72
2022/11/29 02:37:27;;;;;;;306.48;32.70;;;;;;;15.65;64.33;101572.19;5052925;28;20114;-71
2022/11/29 02:40:15;;;;;;;202.65;31.17;;;;;;;15.77;63.46;101579.22;5071087;28;20064;-73
2022/11/29 02:42:53;;;;;;;296.17;31.95;;;;;;;15.86;62.98;101578.84;5071185;28;20032;-72
2022/11/29 02:45:43;;;;;;;253.27;29.63;;;;;;;15.50;64.50;101577.31;5070909;28;20103;-72
2022/11/29 02:48:45;;;;;;;314.45;28.67;;;;;;;15.34;65.57;101586.13;5071324;28;20036;-71
2022/11/29 02:51:24;;;;;;;313.45;30.70;;;;;;;15.11;66.34;101591.59;5070854;28;20044;-72
2022/11/29 02:54:02;;;;;;;306.63;29.25;;;;;;;14.83;66.66;101587.72;5071452;28;20028;-71
2022/11/29 02:56:43;;;;;;;307.38;29.70;;;;;;;15.07;66.33;101595.81;5052937;28;20059;-72
2022/11/29 02:59:32;;;;;;;327.17;28.45;;;;;;;15.13;66.19;101603.00;5070489;28;20657;-72
2022/11/29 03:02:06;;;;;;;373.85;29.15;;;;;;;15.53;64.67;101596.63;5051833;28;20055;-71
2022/11/29 03:04:49;;;;;;;371.92;27.58;;;;;;;15.32;65.33;101597.22;5070233;28;20093;-72
2022/11/29 03:07:26;;;;;;;429.50;31.98;;;;;;;15.62;63.85;101605.19;5070696;28;20029;-72
2022/11/29 03:10:30;;;;;;;313.10;28.90;;;;;;;15.26;65.27;101602.75;5070347;28;20036;-71
2022/11/29 03:12:57;;;;;;;250.65;29.30;;;;;;;15.13;65.46;101605.72;5008439;28;20073;-72
2022/11/29 03:15:40;;;;;;;291.13;29.15;;;;;;;15.71;63.89;101612.72;5008454;28;20034;-72
2022/11/29 03:18:23;;;;;;;326.40;28.98;;;;;;;15.55;64.70;101610.75;5008524;28;20041;-71
2022/11/29 03:21:21;;;;;;;286.45;28.45;;;;;;;15.79;63.02;101615.03;5009923;28;20050;-72
2022/11/29 03:23:50;;;;;;;335.17;32.17;;;;;;;15.09;65.96;101618.06;4995431;28;20049;-72
2022/11/29 03:26:47;;;;;;;293.08;29.42;;;;;;;15.87;63.30;101619.25;5011996;28;20042;-71
2022/11/29 03:29:15;;;;;;;287.00;32.78;;;;;;;15.67;63.83;101625.09;4972609;28;20392;-73
2022/11/29 03:31:55;;;;;;;298.30;31.50;;;;;;;15.55;64.57;101628.88;4972651;28;20058;-71
2022/11/29 03:34:55;;;;;;;339.27;32.47;;;;;;;15.60;64.01;101620.88;4972681;28;20078;-72
2022/11/29 03:37:37;;;;;;;215.43;27.83;;;;;;;14.84;66.68;101629.09;4972799;28;20457;-72
2022/11/29 03:40:09;;;;;;;192.25;29.02;;;;;;;14.44;68.81;101633.53;4972342;28;20042;-71
2022/11/29 03:42:41;;;;;;;279.60;31.80;;;;;;;14.66;68.15;101635.44;4972510;28;20053;-72
2022/11/29 03:45:07;;;;;;;169.32;28.58;;;;;;;14.93;66.14;101638.56;4973062;28;20027;-72
2022/11/29 03:47:43;;;;;;;209.73;29.02;;;;;;;14.05;69.54;101643.00;4974609;28;20050;-72
2022/11/29 03:50:15;;;;;;;181.93;29.80;;;;;;;14.74;67.30;101642.41;5009821;28;20498;-71
2022/11/29 03:52:51;;;;;;;216.25;27.17;;;;;;;15.12;65.78;101633.84;5011497;28;20042;-74
2022/11/29 03:55:47;;;;;;;164.50;26.98;;;;;;;15.02;65.70;101639.84;5011480;28;20045;-72
2022/11/29 03:58:24;;;;;;;239.52;28.30;;;;;;;15.21;65.19;101646.81;4994782;28;20517;-71
2022/11/29 04:01:15;;;;;;;193.38;28.85;;;;;;;14.80;66.84;101642.28;5010708;28;20514;-72
2022/11/29 04:03:42;;;;;;;207.88;28.23;;;;;;;14.82;66.83;101640.16;5011314;28;20124;-72
2022/11/29 04:06:17;;;;;;;281.13;30.75;;;;;;;14.76;67.02;101641.09;5050971;28;20036;-72
2022/11/29 04:09:01;;;;;;;232.77;31.15;;;;;;;14.98;66.34;101646.78;5073133;28;20042;-72
2022/11/29 04:11:57;;;;;;;228.10;30.48;;;;;;;14.52;67.85;101650.25;5073096;28;20040;-71
2022/11/29 04:14:49;;;;;;;111.95;23.60;;;;;;;13.12;72.65;101645.09;5073036;28;20037;-72
2022/11/29 04:17:56;;;;;;;195.75;27.00;;;;;;;14.67;68.07;101647.09;5073302;28;20478;-72
2022/11/29 04:21:11;;;;;;;204.55;28.33;;;;;;;15.48;64.21;101658.00;5072988;28;20052;-71
2022/11/29 04:24:04;;;;;;;171.18;27.02;;;;;;;15.16;65.48;101651.25;5073317;28;20044;-72
2022/11/29 04:27:15;;;;;;;190.95;27.08;;;;;;;15.03;65.66;101656.91;5073189;28;20115;-73
2022/11/29 04:29:46;;;;;;;;;;;;;;;15.58;63.89;101661.75;4991768;28;20034;-73
2022/11/29 04:32:43;;;;;;;130.80;24.13;;;;;;;14.74;66.50;101659.44;4990529;28;20393;-72
2022/11/29 04:35:36;;;;;;;255.02;28.17;;;;;;;15.39;64.12;101662.09;4990976;28;20039;-72
2022/11/29 04:38:04;;;;;;;162.18;24.90;;;;;;;14.53;66.64;101665.41;4974625;28;20043;-71
2022/11/29 04:40:35;;;;;;;150.18;24.23;;;;;;;15.11;65.21;101667.38;4990943;28;20043;-71
2022/11/29 04:43:13;;;;;;;170.10;24.15;;;;;;;14.74;66.58;101675.69;4991004;28;20049;-71
2022/11/29 04:46:12;;;;;;;129.68;24.10;;;;;;;14.98;65.72;101681.16;4990865;28;20113;-70
2022/11/29 04:48:57;;;;;;;127.38;21.83;;;;;;;14.93;66.02;101668.31;4990704;28;20130;-71
2022/11/29 04:51:47;;;;;;;146.68;23.95;;;;;;;15.30;64.57;101668.91;4990593;28;20037;-71
2022/11/29 04:54:23;;;;;;;121.55;22.45;;;;;;;15.44;64.03;101675.78;4974391;28;20526;-70
2022/11/29 04:57:08;;;;;;;121.60;22.98;;;;;;;14.04;68.88;101680.00;4990854;28;20080;-71
2022/11/29 04:59:48;;;;;;;125.00;22.33;;;;;;;14.06;68.60;101669.78;4995488;28;20093;-72
2022/11/29 05:02:40;;;;;;;129.48;22.98;;;;;;;14.95;65.45;101677.03;4999841;28;20034;-71
2022/11/29 05:05:31;;;;;;;153.20;23.10;;;;;;;14.94;65.30;101683.47;5009483;28;20545;-71
2022/11/29 05:07:59;;;;;;;129.18;21.00;;;;;;;15.24;64.59;101688.81;5062477;28;20046;-71
2022/11/29 05:10:40;;;;;;;148.75;24.42;;;;;;;15.19;64.85;101689.53;5071698;28;20041;-71
2022/11/29 05:13:17;;;;;;;101.95;21.58;;;;;;;14.38;67.50;101696.63;5071057;28;20563;-71
2022/11/29 05:16:06;;;;;;;106.55;20.98;;;;;;;13.99;69.80;101695.25;5070732;28;20093;-72
2022/11/29 05:18:50;;;;;;;122.35;23.08;;;;;;;13.88;69.28;101698.69;5071085;28;20044;-71
2022/11/29 05:21:45;;;;;;;121.07;24.73;;;;;;;15.08;65.28;101701.16;5070624;28;20029;-71
2022/11/29 05:24:24;;;;;;;103.45;20.55;;;;;;;15.25;64.49;101695.91;5071665;28;20037;-72
2022/11/29 05:27:38;;;;;;;122.53;22.50;;;;;;;14.73;65.31;101709.22;5071652;28;20040;-72
2022/11/29 05:30:13;;;;;;;173.35;21.52;;;;;;;14.82;66.14;101715.94;5046129;28;20032;-72
2022/11/29 05:32:50;;;;;;;176.00;22.98;;;;;;;15.29;64.50;101716.03;5048461;28;20098;-72
2022/11/29 05:35:39;;;;;;;110.82;24.27;;;;;;;15.41;64.10;101719.56;5048054;28;20033;-71
2022/11/29 05:38:14;;;;;;;219.05;22.95;;;;;;;15.41;63.67;101722.28;5048208;28;20051;-72
2022/11/29 05:40:53;;;;;;;164.88;24.83;;;;;;;15.07;65.03;101715.78;5038818;28;20575;-72
2022/11/29 05:43:33;;;;;;;137.75;21.08;;;;;;;15.32;64.32;101723.66;5035482;28;20044;-73
2022/11/29 05:46:16;;;;;;;181.00;20.90;;;;;;;15.17;64.89;101726.03;5038193;28;20033;-73
2022/11/29 05:49:12;;;;;;;167.45;21.80;;;;;;;15.44;64.00;101721.81;5035150;28;20037;-73
2022/11/29 05:52:03;;;;;;;122.72;21.92;;;;;;;15.59;63.43;101728.41;5035134;28;20064;-72
2022/11/29 05:54:34;;;;;;;184.77;22.92;;;;;;;14.65;66.57;101738.47;5036841;28;20041;-73
2022/11/29 05:57:15;;;;;;;185.75;21.67;;;;;;;14.34;68.16;101736.84;5038249;28;20028;-71
2022/11/29 05:59:42;;;;;;;149.57;21.95;;;;;;;14.68;66.25;101744.25;5037791;28;20111;-72
2022/11/29 06:02:40;;;;;;;139.40;21.13;;;;;;;14.40;68.23;101745.91;5036564;28;20469;-73
2022/11/29 06:05:23;;;;;;;148.60;23.50;;;;;;;14.98;65.58;101744.22;5036090;28;20440;-72
2022/11/29 06:07:57;;;;;;;178.52;20.92;;;;;;;14.59;67.01;101742.09;5074775;28;20041;-73
2022/11/29 06:10:31;;;;;;;155.43;21.42;;;;;;;14.59;67.09;101755.63;5062375;28;20040;-72
2022/11/29 06:13:27;;;;;;;153.88;22.95;;;;;;;14.62;66.22;101757.88;5070197;28;20116;-72
2022/11/29 06:16:24;;;;;;;150.25;22.67;;;;;;;15.10;65.18;101757.78;5070017;28;20040;-72
2022/11/29 06:19:24;;;;;;;134.02;22.80;;;;;;;14.63;66.08;101760.34;5070224;28;20472;-71
2022/11/29 06:22:04;;;;;;;155.68;23.38;;;;;;;14.73;66.67;101763.34;5070356;28;20063;-72
2022/11/29 06:25:11;;;;;;;114.88;23.45;;;;;;;15.09;65.63;101762.38;5070536;28;20043;-71
2022/11/29 06:27:47;;;;;;;154.52;24.55;;;;;;;15.26;64.42;101766.06;4972224;28;20077;-71
2022/11/29 06:30:16;;;;;;;130.07;22.85;;;;;;;15.07;65.19;101767.22;4988129;28;20046;-73
2022/11/29 06:33:23;;;;;;;139.40;20.73;;;;;;;14.96;65.43;101770.69;4988680;28;20054;-72
2022/11/29 06:36:14;;;;;;;135.82;21.20;;;;;;;15.10;65.08;101774.84;4930320;29;20082;-72
2022/11/29 06:38:41;;;;;;;155.48;23.42;;;;;;;15.21;65.15;101779.47;4930724;29;20052;-72
2022/11/29 06:41:15;;;;;;;167.73;23.23;;;;;;;15.20;64.68;101777.81;4920739;29;20524;-71
2022/11/29 06:43:40;;;;;;;177.07;23.98;;;;;;;15.20;64.79;101787.81;4911391;29;20115;-72
2022/11/29 06:46:20;;;;;;;121.50;22.58;;;;;;;14.47;67.01;101785.31;4911401;29;20440;-71
2022/11/29 06:48:56;;;;;;;173.93;27.07;;;;;;;15.36;64.23;101790.69;4910058;29;20368;-70
2022/11/29 06:51:36;;;;;;;135.05;20.73;;;;;;;15.31;63.97;101795.97;4910654;29;20554;-71
2022/11/29 06:54:19;;;;;;;137.30;23.58;;;;;;;15.20;64.64;101801.34;4908698;29;20055;-70
2022/11/29 06:57:22;;;;;;;132.13;21.52;;;;;;;14.93;65.15;101795.53;4914179;29;20063;-71
2022/11/29 07:00:10;;;;;;;122.07;22.15;;;;;;;15.03;65.19;101795.78;4915205;29;20576;-71
2022/11/29 07:02:56;;;;;;;176.30;20.77;;;;;;;15.24;64.02;101803.38;4950715;29;20070;-71
2022/11/29 07:05:21;;;;;;;136.52;23.13;;;;;;;15.10;64.48;101803.78;4958737;28;20134;-71
2022/11/29 07:07:47;;;;;;;184.35;21.95;;;;;;;14.64;66.40;101802.56;4971875;28;20125;-71
2022/11/29 07:10:18;;;;;;;213.18;22.25;;;;;;;14.43;67.83;101805.75;4965877;28;20043;-72
2022/11/29 07:12:45;;;;;;;177.02;22.67;;;;;;;15.29;64.74;101803.50;5047839;28;20041;-72
2022/11/29 07:15:21;;;;;;;212.90;24.25;;;;;;;15.45;63.92;101810.97;5046823;28;20362;-71
2022/11/29 07:17:52;;;;;;;203.75;24.45;;;;;;;15.33;64.06;101820.94;5038146;28;20041;-71
2022/11/29 07:20:36;;;;;;;150.07;21.10;;;;;;;14.52;67.05;101817.09;5049309;28;20029;-71
2022/11/29 07:23:23;;;;;;;149.88;23.08;;;;;;;14.85;66.65;101818.31;5052531;28;20036;-71
2022/11/29 07:26:26;;;;;;;162.90;24.90;;;;;;;15.49;63.96;101824.88;5050771;28;20037;-70
2022/11/29 07:29:12;;;;;;;177.65;23.25;;;;;;;15.57;63.58;101830.78;5048177;28;20033;-71
2022/11/29 07:31:43;;;;;;;187.90;24.13;;;;;;;15.37;63.93;101829.44;5051188;28;20119;-71
2022/11/29 07:34:21;;;;;;;234.43;26.15;;;;;;;15.48;63.88;101834.06;5049200;28;20060;-71
2022/11/29 07:36:56;;;;;;;198.57;25.88;;;;;;;15.00;65.99;101834.13;5052956;28;20044;-71
2022/11/29 07:39:30;;;;;;;189.75;24.88;;;;;;;15.14;65.46;101827.47;5052819;28;20429;-71
2022/11/29 07:42:18;;;;;;;182.70;24.02;;;;;;;14.74;66.55;101839.94;5053369;28;20449;-71
2022/11/29 07:44:59;;;;;;;130.82;22.50;;;;;;;14.12;70.21;101841.03;5014287;28;20452;-71
2022/11/29 07:47:24;;;;;;;154.40;24.08;;;;;;;14.47;68.18;101833.16;5033037;28;20084;-71
2022/11/29 07:49:50;;;;;;;145.02;24.20;;;;;;;14.42;68.86;101839.28;5033068;28;20041;-70
2022/11/29 07:52:16;;;;;;;191.05;23.45;;;;;;;14.74;66.70;101854.25;5014585;28;20120;-70
2022/11/29 07:54:42;;;;;;;143.45;22.23;;;;;;;14.91;66.78;101844.47;5032899;28;20047;-71
2022/11/29 07:57:07;;;;;;;213.85;26.17;;;;;;;14.35;68.12;101840.41;5033262;28;20399;-71
2022/11/29 07:59:33;;;;;;;174.90;22.80;;;;;;;14.67;67.21;101853.53;5035738;28;20064;-71
2022/11/29 08:01:58;;;;;;;190.55;27.60;;;;;;;15.35;64.94;101854.03;5033521;28;20042;-72
2022/11/29 08:04:24;;;;;;;166.68;25.45;;;;;;;14.94;66.26;101854.84;5014836;28;20193;-72
2022/11/29 08:06:50;;;;;;;187.68;24.23;;;;;;;14.88;66.58;101871.16;5031484;28;20132;-71
2022/11/29 08:09:15;;;;;;;148.60;22.27;;;;;;;14.34;68.84;101860.38;5051929;28;20033;-70
2022/11/29 08:11:41;;;;;;;136.27;22.70;;;;;;;14.34;68.53;101868.50;5052773;28;20025;-70
2022/11/29 08:14:06;;;;;;;187.55;24.73;;;;;;;14.66;67.30;101870.00;5052487;28;20176;-70
2022/11/29 08:16:32;;;;;;;181.63;21.50;;;;;;;14.06;70.57;101875.19;5052492;28;20045;-71
2022/11/29 08:18:57;;;;;;;173.95;22.10;;;;;;;13.88;70.23;101880.56;5052296;28;20033;-71
2022/11/29 08:21:23;;;;;;;143.20;21.27;;;;;;;13.87;70.66;101878.91;5052147;28;20512;-72
2022/11/29 08:23:50;;;;;;;165.25;22.23;;;;;;;14.17;70.00;101883.63;5052804;28;20074;-73
2022/11/29 08:26:16;;;;;;;153.18;22.83;;;;;;;14.28;69.03;101886.44;5052301;28;20043;-70
2022/11/29 08:28:42;;;;;;;185.82;24.08;;;;;;;14.81;67.96;101884.78;5052225;28;20500;-71
2022/11/29 08:31:10;;;;;;;158.93;21.58;;;;;;;15.21;65.94;101876.97;5051804;28;20044;-72
2022/11/29 08:33:38;;;;;;;203.50;25.17;;;;;;;15.12;66.06;101880.19;5052060;28;20130;-71
2022/11/29 08:36:05;;;;;;;219.68;24.58;;;;;;;15.18;66.10;101882.00;5034526;28;20443;-71
2022/11/29 08:38:31;;;;;;;184.07;24.33;;;;;;;14.96;65.97;101898.75;5051405;28;20316;-71
2022/11/29 08:41:01;;;;;;;182.95;25.48;;;;;;;15.09;66.38;101892.34;5051815;28;20037;-72
2022/11/29 08:43:28;;;;;;;216.52;24.48;;;;;;;14.56;67.83;101889.47;5051925;28;20041;-72
2022/11/29 08:45:53;;;;;;;208.60;24.58;;;;;;;14.14;73.40;101901.09;5052244;28;20066;-73
2022/11/29 08:48:19;;;;;;;215.13;21.98;;;;;;;15.29;68.30;101900.19;5051658;28;20489;-72
2022/11/29 08:50:44;;;;;;;290.52;29.88;;;;;;;15.28;67.83;101901.22;5052211;28;20321;-72
2022/11/29 08:55:58;;;;;;;275.35;26.40;;;;;;;15.24;68.10;101905.44;5051612;28;20078;-71
2022/11/29 08:58:24;;;;;;;237.57;27.33;;;;;;;15.16;68.46;101909.31;5033436;28;20036;-72
2022/11/29 09:00:49;;;;;;;196.15;26.13;;;;;;;16.11;64.88;101908.25;5060908;28;20040;-72
2022/11/29 09:06:05;;;;;;;217.13;26.08;;;;;;;15.45;67.20;101916.63;5071859;28;20067;-72
2022/11/29 09:08:30;;;;;;;238.00;26.08;;;;;;;15.59;66.48;101918.06;5071269;28;20041;-72
2022/11/29 09:10:56;;;;;;;216.80;23.90;;;;;;;15.11;67.94;101919.16;5071200;28;20044;-73
2022/11/29 09:13:21;;;;;;;191.85;22.77;;;;;;;15.73;65.85;101913.28;5071320;28;20056;-72
2022/11/29 09:15:47;;;;;;;165.63;25.52;;;;;;;15.56;65.72;101920.44;5071389;28;20032;-72
2022/11/29 09:18:12;;;;;;;175.70;25.65;;;;;;;15.77;65.37;101926.13;5070687;28;20040;-71
2022/11/29 09:20:41;;;;;;;130.73;22.17;;;;;;;14.89;68.78;101924.25;5071410;28;20094;-73
2022/11/29 09:23:06;;;;;;;122.20;20.85;;;;;;;15.08;67.68;101919.63;5070924;28;20107;-73
2022/11/29 09:25:32;;;;;;;145.30;20.52;;;;;;;15.39;66.93;101925.63;5071070;28;20086;-72
2022/11/29 09:28:01;;;;;;;116.53;18.58;;;;;;;15.03;67.11;101922.19;5071146;28;20039;-72
2022/11/29 09:30:30;;;;;;;98.80;22.40;;;;;;;15.42;66.64;101932.50;5070931;28;20020;-71
2022/11/29 09:32:55;;;;;;;109.43;18.02;;;;;;;15.00;67.82;101930.78;5071864;28;20481;-72
2022/11/29 09:35:21;;;;;;;91.13;19.10;;;;;;;15.07;67.95;101929.63;5068314;28;20121;-71
2022/11/29 09:37:46;;;;;;;218.25;17.17;;;;;;;14.63;68.47;101938.91;5063206;28;20116;-71
2022/11/29 09:40:18;;;;;;;152.57;18.17;;;;;;;14.56;69.36;101940.03;5050758;28;20041;-72
2022/11/29 09:43:36;;;;;;;107.13;16.83;;;;;;;15.14;67.92;101946.63;5055730;28;20036;-72
2022/11/29 09:46:16;;;;;;;98.72;18.42;;;;;;;14.75;68.86;101949.81;4950114;28;20135;-72
2022/11/29 09:49:03;;;;;;;108.15;20.48;;;;;;;15.34;66.22;101949.06;4950304;28;20047;-72
2022/11/29 09:51:49;;;;;;;96.00;16.67;;;;;;;15.54;66.50;101955.88;4950122;28;20035;-71
2022/11/29 09:54:34;;;;;;;95.03;17.75;;;;;;;15.54;65.80;101955.88;4950675;28;20042;-72
2022/11/29 09:57:03;;;;;;;113.38;17.60;;;;;;;14.31;70.28;101963.59;4950556;29;20035;-73
2022/11/29 09:59:34;;;;;;;82.10;16.17;;;;;;;14.32;70.72;101967.94;4950142;28;20047;-73
2022/11/29 10:02:13;;;;;;;84.00;16.33;;;;;;;14.70;68.42;101964.00;4949839;28;20074;-71
2022/11/29 10:04:42;;;;;;;55.72;17.30;;;;;;;14.68;68.67;101960.69;4950613;28;20075;-72
2022/11/29 10:07:33;;;;;;;66.95;15.68;;;;;;;14.92;67.71;101953.53;4949947;28;20039;-72
2022/11/29 10:10:12;;;;;;;62.58;17.77;;;;;;;15.65;65.72;101951.53;4949992;28;20039;-72
2022/11/29 10:12:45;;;;;;;87.70;16.50;;;;;;;14.84;67.82;101954.69;4950126;28;20123;-73
2022/11/29 10:15:30;;;;;;;77.55;15.60;;;;;;;15.35;66.79;101959.66;4950392;29;20043;-72
2022/11/29 10:18:17;;;;;;;105.78;17.27;;;;;;;14.97;67.44;101959.13;4948822;29;20130;-72
2022/11/29 10:20:46;;;;;;;86.88;15.95;;;;;;;14.49;69.58;101960.91;4956695;28;20047;-72
2022/11/29 10:23:30;;;;;;;86.30;15.75;;;;;;;14.26;70.65;101960.69;5040461;28;20092;-71
2022/11/29 10:25:57;;;;;;;63.67;16.13;;;;;;;14.60;68.16;101962.88;5070300;28;20536;-72
2022/11/29 10:28:31;;;;;;;83.65;16.27;;;;;;;14.45;69.66;101955.13;5070307;28;20043;-72
2022/11/29 10:31:07;;;;;;;66.13;17.88;;;;;;;15.55;66.35;101967.53;5071910;28;20056;-72
2022/11/29 10:33:38;;;;;;;60.78;16.85;;;;;;;15.66;65.29;101958.63;5070961;28;20466;-72
2022/11/29 10:36:15;;;;;;;49.55;16.58;;;;;;;15.95;63.90;101962.34;5055134;28;20040;-72
2022/11/29 10:38:43;;;;;;;94.13;19.02;;;;;;;15.16;65.93;101962.63;5056881;28;20054;-72
2022/11/29 10:41:13;;;;;;;50.97;15.60;;;;;;;14.91;67.81;101965.44;5073949;28;20569;-72
2022/11/29 10:43:38;;;;;;;35.90;14.90;;;;;;;14.89;68.78;101959.44;5072225;28;20036;-72
2022/11/29 10:46:09;;;;;;;49.10;16.50;;;;;;;15.64;65.86;101960.75;5075144;28;20408;-72
2022/11/29 10:48:34;;;;;;;50.15;17.90;;;;;;;15.51;66.45;101960.91;5075122;28;20032;-72
2022/11/29 10:51:00;;;;;;;60.42;16.02;;;;;;;15.32;67.06;101968.25;5074448;28;20037;-72
2022/11/29 10:53:30;;;;;;;53.42;16.88;;;;;;;14.91;68.64;101960.88;5074342;28;20032;-72
2022/11/29 10:56:15;;;;;;;43.97;16.75;;;;;;;14.62;69.91;101961.59;5072619;28;20102;-73
2022/11/29 10:58:56;;;;;;;50.17;16.08;;;;;;;14.72;68.66;101970.00;5074044;28;20033;-71
2022/11/29 11:01:22;;;;;;;45.53;15.70;;;;;;;15.19;67.50;101962.19;5073176;28;20048;-71
2022/11/29 11:03:53;;;;;;;44.13;15.63;;;;;;;15.83;64.89;101967.75;5073689;28;20115;-71
2022/11/29 11:06:25;;;;;;;42.70;17.77;;;;;;;15.79;65.77;101966.56;5073883;28;20064;-72
2022/11/29 11:08:56;;;;;;;45.03;16.92;;;;;;;15.40;67.05;101972.50;5074257;28;20025;-70
2022/11/29 11:11:25;;;;;;;43.33;15.15;;;;;;;15.26;67.52;101968.31;5073825;28;20051;-71
2022/11/29 11:14:15;;;;;;;40.10;16.42;;;;;;;15.30;67.36;101973.06;5073516;28;20393;-72
2022/11/29 11:16:41;;;;;;;48.55;17.27;;;;;;;15.74;65.21;101972.66;5058806;28;20456;-71
2022/11/29 11:19:22;;;;;;;42.28;16.40;;;;;;;15.81;65.17;101967.97;5053324;28;20060;-71
2022/11/29 11:21:47;;;;;;;55.08;16.08;;;;;;;15.78;65.61;101968.44;5053445;28;20033;-71
2022/11/29 11:24:23;;;;;;;48.63;18.90;;;;;;;15.81;65.27;101967.97;5053317;28;20033;-71
2022/11/29 11:26:49;;;;;;;42.03;16.17;;;;;;;15.28;65.84;101979.75;5036550;28;20028;-72
2022/11/29 11:29:21;;;;;;;43.65;17.45;;;;;;;15.33;67.65;101969.88;5035818;28;20539;-71
2022/11/29 11:31:56;;;;;;;42.25;17.52;;;;;;;16.69;62.68;101973.34;5073616;28;20452;-72
2022/11/29 11:34:28;;;;;;;56.45;19.75;;;;;;;16.18;63.79;101978.63;5056296;28;20032;-72
2022/11/29 11:37:13;;;;;;;45.58;18.90;;;;;;;16.22;64.05;101980.66;5072934;28;20032;-70
2022/11/29 11:39:44;;;;;;;74.90;43.65;;;;;;;16.54;63.78;101982.00;5072573;28;20037;-73
2022/11/29 11:44:56;;;;;;;55.83;22.27;;;;;;;16.36;64.01;101973.94;5073215;28;20079;-71
2022/11/29 11:47:26;;;;;;;54.50;20.65;;;;;;;16.21;63.28;101972.75;5074826;28;20056;-72
2022/11/29 11:50:03;;;;;;;69.07;33.85;;;;;;;16.04;64.49;101975.31;5052670;28;20055;-72